createdAt,value
2018-06-10T00:01:02.974Z,10.80
2018-06-10T00:03:33.549Z,8.93
2018-06-10T00:06:04.073Z,8.77
2018-06-10T00:08:34.642Z,9.20
2018-06-10T00:11:05.190Z,8.20
2018-06-10T00:13:35.747Z,10.00
2018-06-10T00:16:06.313Z,7.97
2018-06-10T00:18:36.915Z,7.57
2018-06-10T00:21:07.633Z,7.70
2018-06-10T00:23:38.246Z,9.70
2018-06-10T00:26:08.899Z,12.93
2018-06-10T00:28:44.727Z,11.83
2018-06-10T00:31:15.262Z,12.67
2018-06-10T00:33:45.782Z,11.23
2018-06-10T00:36:16.346Z,12.43
2018-06-10T00:38:46.909Z,8.70
2018-06-10T00:41:17.461Z,8.93
2018-06-10T00:44:17.248Z,10.13
2018-06-10T00:46:53.322Z,10.60
2018-06-10T00:49:24.549Z,8.70
2018-06-10T00:51:55.893Z,10.53
2018-06-10T00:54:26.787Z,10.07
2018-06-10T00:57:01.697Z,11.77
2018-06-10T00:59:40.228Z,13.73
2018-06-10T01:02:14.653Z,14.57
2018-06-10T01:04:46.318Z,13.90
2018-06-10T01:07:16.939Z,12.97
2018-06-10T01:09:47.952Z,14.27
2018-06-10T01:12:18.619Z,18.03
2018-06-10T01:14:49.218Z,17.10
2018-06-10T01:17:19.902Z,17.20
2018-06-10T01:19:50.456Z,16.67
2018-06-10T01:22:21.127Z,15.63
2018-06-10T01:24:51.677Z,13.63
2018-06-10T01:27:22.249Z,16.17
2018-06-10T01:29:52.792Z,12.60
2018-06-10T01:32:23.378Z,13.80
2018-06-10T01:34:53.937Z,11.37
2018-06-10T01:37:24.545Z,12.00
2018-06-10T01:39:55.114Z,12.17
2018-06-10T01:42:25.693Z,12.10
2018-06-10T01:44:56.233Z,10.30
2018-06-10T01:47:26.842Z,11.37
2018-06-10T01:49:57.444Z,10.57
2018-06-10T01:52:27.960Z,10.13
2018-06-10T01:54:58.609Z,10.70
2018-06-10T01:57:29.409Z,8.70
2018-06-10T01:59:59.963Z,9.03
2018-06-10T02:02:30.493Z,9.73
2018-06-10T02:05:01.099Z,9.87
2018-06-10T02:07:31.844Z,10.13
2018-06-10T02:10:02.419Z,10.90
2018-06-10T02:12:33.029Z,9.83
2018-06-10T02:15:03.577Z,10.47
2018-06-10T02:17:34.123Z,10.03
2018-06-10T02:20:04.708Z,9.93
2018-06-10T02:22:35.288Z,10.33
2018-06-10T02:25:05.931Z,10.17
2018-06-10T02:27:36.568Z,8.90
2018-06-10T02:30:07.383Z,9.70
2018-06-10T02:32:37.930Z,9.03
2018-06-10T02:35:08.538Z,8.67
2018-06-10T02:37:39.049Z,8.90
2018-06-10T02:40:09.603Z,10.30
2018-06-10T02:43:10.891Z,10.13
2018-06-10T02:45:41.529Z,10.40
2018-06-10T02:48:12.104Z,10.80
2018-06-10T02:50:42.716Z,11.03
2018-06-10T02:53:13.250Z,10.77
2018-06-10T02:55:43.844Z,9.93
2018-06-10T02:58:14.381Z,11.50
2018-06-10T03:00:44.958Z,10.63
2018-06-10T03:03:15.468Z,10.73
2018-06-10T03:05:46.146Z,10.47
2018-06-10T03:08:16.753Z,11.00
2018-06-10T03:10:47.456Z,13.57
2018-06-10T03:13:18.220Z,11.60
2018-06-10T03:15:48.862Z,12.70
2018-06-10T03:18:19.396Z,11.73
2018-06-10T03:20:50.018Z,13.13
2018-06-10T03:23:20.618Z,11.03
2018-06-10T03:25:51.208Z,11.63
2018-06-10T03:28:21.776Z,11.97
2018-06-10T03:30:52.453Z,12.87
2018-06-10T03:33:22.994Z,13.00
2018-06-10T03:35:53.638Z,12.63
2018-06-10T03:38:24.242Z,13.53
2018-06-10T03:40:54.860Z,13.90
2018-06-10T03:43:25.414Z,15.57
2018-06-10T03:45:56.073Z,14.73
2018-06-10T03:48:26.683Z,14.97
2018-06-10T03:50:57.267Z,14.83
2018-06-10T03:53:27.816Z,14.33
2018-06-10T03:55:58.361Z,13.37
2018-06-10T03:58:28.962Z,13.90
2018-06-10T04:00:59.675Z,13.20
2018-06-10T04:03:30.272Z,13.03
2018-06-10T04:06:00.839Z,12.63
2018-06-10T04:08:31.414Z,13.13
2018-06-10T04:11:01.992Z,12.33
2018-06-10T04:13:32.555Z,12.13
2018-06-10T04:16:03.121Z,15.20
2018-06-10T04:18:33.692Z,15.43
2018-06-10T04:21:04.225Z,16.20
2018-06-10T04:23:34.824Z,14.87
2018-06-10T04:26:05.460Z,16.20
2018-06-10T04:28:36.026Z,19.20
2018-06-10T04:31:06.619Z,18.90
2018-06-10T04:33:37.165Z,18.07
2018-06-10T04:36:07.759Z,20.50
2018-06-10T04:38:38.320Z,22.60
2018-06-10T04:41:08.924Z,21.23
2018-06-10T04:43:39.552Z,22.90
2018-06-10T04:46:10.148Z,22.70
2018-06-10T04:48:40.732Z,23.93
2018-06-10T04:51:11.292Z,24.03
2018-06-10T04:53:41.869Z,21.77
2018-06-10T04:56:12.474Z,24.10
2018-06-10T04:58:43.046Z,22.77
2018-06-10T05:01:13.626Z,24.07
2018-06-10T05:03:44.200Z,24.37
2018-06-10T05:06:14.759Z,22.17
2018-06-10T05:08:45.287Z,23.93
2018-06-10T05:11:15.868Z,24.47
2018-06-10T05:13:46.443Z,23.63
2018-06-10T05:16:17.066Z,25.30
2018-06-10T05:18:47.604Z,23.47
2018-06-10T05:21:18.196Z,25.37
2018-06-10T05:23:48.729Z,24.23
2018-06-10T05:26:19.365Z,24.53
2018-06-10T05:28:49.897Z,24.53
2018-06-10T05:31:20.501Z,24.67
2018-06-10T05:33:51.118Z,25.07
2018-06-10T05:36:21.699Z,22.20
2018-06-10T05:38:52.811Z,24.30
2018-06-10T05:41:23.406Z,24.27
2018-06-10T05:43:54.029Z,23.27
2018-06-10T05:46:24.598Z,23.53
2018-06-10T05:48:56.137Z,23.77
2018-06-10T05:51:26.694Z,21.27
2018-06-10T05:53:57.321Z,25.13
2018-06-10T05:56:27.972Z,22.77
2018-06-10T05:58:58.634Z,21.80
2018-06-10T06:01:29.155Z,23.13
2018-06-10T06:03:59.731Z,22.57
2018-06-10T06:06:30.292Z,24.50
2018-06-10T06:09:00.916Z,22.63
2018-06-10T06:11:31.523Z,22.97
2018-06-10T06:14:02.182Z,24.57
2018-06-10T06:16:32.850Z,22.70
2018-06-10T06:19:03.588Z,23.37
2018-06-10T06:21:34.295Z,20.87
2018-06-10T06:24:04.888Z,24.70
2018-06-10T06:26:35.462Z,22.17
2018-06-10T06:29:06.117Z,22.87
2018-06-10T06:31:36.661Z,21.97
2018-06-10T06:34:07.341Z,22.57
2018-06-10T06:36:38.038Z,23.43
2018-06-10T06:39:09.084Z,20.33
2018-06-10T06:41:39.750Z,20.77
2018-06-10T06:44:10.301Z,20.23
2018-06-10T06:46:41.253Z,20.87
2018-06-10T06:49:11.801Z,18.47
2018-06-10T06:51:42.413Z,17.47
2018-06-10T06:54:13.003Z,20.67
2018-06-10T06:56:43.679Z,20.93
2018-06-10T06:59:14.304Z,18.67
2018-06-10T07:01:44.950Z,20.47
2018-06-10T07:04:15.583Z,18.73
2018-06-10T07:06:46.340Z,20.57
2018-06-10T07:09:17.005Z,19.13
2018-06-10T07:11:47.704Z,17.27
2018-06-10T07:14:18.370Z,19.40
2018-06-10T07:16:48.982Z,18.90
2018-06-10T07:19:19.629Z,18.37
2018-06-10T07:21:50.236Z,17.53
2018-06-10T07:24:20.887Z,16.20
2018-06-10T07:26:51.468Z,18.73
2018-06-10T07:29:22.946Z,14.60
2018-06-10T07:31:53.531Z,15.93
2018-06-10T07:34:24.184Z,14.37
2018-06-10T07:36:54.714Z,14.60
2018-06-10T07:39:25.397Z,14.70
2018-06-10T07:41:56.067Z,14.83
2018-06-10T07:44:26.643Z,15.17
2018-06-10T07:46:57.436Z,15.60
2018-06-10T07:49:28.094Z,14.73
2018-06-10T07:51:58.720Z,16.27
2018-06-10T07:54:29.362Z,16.50
2018-06-10T07:56:59.973Z,15.80
2018-06-10T07:59:30.613Z,16.33
2018-06-10T08:02:01.367Z,17.63
2018-06-10T08:04:31.989Z,17.57
2018-06-10T08:07:02.664Z,18.03
2018-06-10T08:09:33.272Z,14.97
2018-06-10T08:12:03.886Z,17.50
2018-06-10T08:14:34.427Z,17.00
2018-06-10T08:17:05.069Z,17.40
2018-06-10T08:19:35.736Z,16.83
2018-06-10T08:22:06.332Z,18.43
2018-06-10T08:24:36.849Z,18.87
2018-06-10T08:27:07.490Z,17.57
2018-06-10T08:29:38.115Z,16.33
2018-06-10T08:32:08.771Z,18.90
2018-06-10T08:34:39.527Z,17.30
2018-06-10T08:37:10.237Z,18.23
2018-06-10T08:39:40.844Z,17.70
2018-06-10T08:42:11.422Z,18.33
2018-06-10T08:44:41.942Z,20.73
2018-06-10T08:47:12.778Z,20.13
2018-06-10T08:49:43.706Z,21.30
2018-06-10T08:52:14.476Z,21.37
2018-06-10T08:54:45.095Z,19.77
2018-06-10T08:57:15.645Z,20.67
2018-06-10T08:59:46.255Z,20.37
2018-06-10T09:02:16.789Z,22.83
2018-06-10T09:04:47.367Z,19.87
2018-06-10T09:07:17.916Z,22.87
2018-06-10T09:09:48.449Z,24.00
2018-06-10T09:12:19.012Z,25.83
2018-06-10T09:14:49.598Z,26.23
2018-06-10T09:17:20.389Z,25.37
2018-06-10T09:19:51.006Z,22.90
2018-06-10T09:22:21.681Z,24.37
2018-06-10T09:24:52.219Z,25.70
2018-06-10T09:27:22.860Z,25.10
2018-06-10T09:29:53.440Z,26.13
2018-06-10T09:32:24.092Z,26.10
2018-06-10T09:34:54.678Z,28.80
2018-06-10T09:37:25.284Z,25.33
2018-06-10T09:39:55.886Z,29.27
2018-06-10T09:42:26.480Z,27.20
2018-06-10T09:44:57.069Z,29.80
2018-06-10T09:47:27.695Z,30.47
2018-06-10T09:49:58.310Z,30.43
2018-06-10T09:52:28.859Z,31.13
2018-06-10T09:54:59.424Z,31.87
2018-06-10T09:57:29.992Z,30.83
2018-06-10T10:00:00.556Z,31.63
2018-06-10T10:02:31.171Z,32.40
2018-06-10T10:05:01.722Z,30.83
2018-06-10T10:07:32.328Z,29.73
2018-06-10T10:10:03.020Z,31.67
2018-06-10T10:12:33.615Z,30.17
2018-06-10T10:15:04.263Z,31.30
2018-06-10T10:17:34.812Z,31.77
2018-06-10T10:20:05.448Z,31.13
2018-06-10T10:22:36.002Z,34.27
2018-06-10T10:25:06.671Z,32.67
2018-06-10T10:27:37.365Z,33.63
2018-06-10T10:30:08.048Z,32.33
2018-06-10T10:32:39.269Z,34.27
2018-06-10T10:35:09.864Z,30.97
2018-06-10T10:37:40.542Z,34.07
2018-06-10T10:40:11.234Z,35.30
2018-06-10T10:42:41.568Z,36.97
2018-06-10T10:45:12.136Z,37.13
2018-06-10T10:47:42.689Z,36.93
2018-06-10T10:50:13.297Z,36.97
2018-06-10T10:52:43.877Z,36.23
2018-06-10T10:55:14.536Z,35.70
2018-06-10T10:57:45.096Z,35.93
2018-06-10T11:00:15.674Z,35.87
2018-06-10T11:02:46.305Z,36.83
2018-06-10T11:05:16.946Z,37.07
2018-06-10T11:07:47.553Z,35.03
2018-06-10T11:10:18.267Z,36.00
2018-06-10T11:12:48.802Z,34.27
2018-06-10T11:15:19.408Z,29.57
2018-06-10T11:17:49.997Z,33.07
2018-06-10T11:20:20.611Z,32.03
2018-06-10T11:22:51.173Z,33.87
2018-06-10T11:25:21.881Z,32.10
2018-06-10T11:27:52.442Z,22.07
2018-06-10T11:30:22.680Z,27.43
2018-06-10T11:32:53.097Z,29.73
2018-06-10T11:35:23.719Z,29.90
2018-06-10T11:38:00.926Z,32.07
2018-06-10T11:40:31.677Z,30.53
2018-06-10T11:43:02.503Z,32.20
2018-06-10T11:45:33.201Z,30.67
2018-06-10T11:48:03.796Z,34.57
2018-06-10T11:50:34.340Z,36.20
2018-06-10T11:53:04.917Z,39.67
2018-06-10T11:55:35.476Z,40.37
2018-06-10T11:58:06.148Z,40.67
2018-06-10T12:00:36.720Z,39.23
2018-06-10T12:03:07.403Z,41.37
2018-06-10T12:05:37.956Z,41.30
2018-06-10T12:08:08.542Z,42.47
2018-06-10T12:10:39.221Z,39.30
2018-06-10T12:13:09.701Z,36.80
2018-06-10T12:15:40.342Z,32.47
2018-06-10T12:18:10.925Z,31.63
2018-06-10T12:20:41.579Z,30.10
2018-06-10T12:23:12.256Z,28.47
2018-06-10T12:25:42.811Z,29.37
2018-06-10T12:28:13.418Z,25.53
2018-06-10T12:30:44.055Z,28.67
2018-06-10T12:33:14.716Z,27.63
2018-06-10T12:35:45.433Z,27.70
2018-06-10T12:38:16.145Z,28.00
2018-06-10T12:40:46.671Z,28.27
2018-06-10T12:43:17.313Z,29.20
2018-06-10T12:45:47.911Z,29.43
2018-06-10T12:48:18.482Z,27.20
2018-06-10T12:50:51.948Z,29.00
2018-06-10T12:53:22.531Z,27.23
2018-06-10T12:55:53.045Z,24.47
2018-06-10T12:58:23.687Z,22.77
2018-06-10T13:00:54.311Z,23.27
2018-06-10T13:03:24.880Z,25.07
2018-06-10T13:05:55.444Z,27.63
2018-06-10T13:08:25.997Z,26.83
2018-06-10T13:10:56.636Z,25.17
2018-06-10T13:13:27.300Z,23.63
2018-06-10T13:15:57.851Z,22.43
2018-06-10T13:18:28.471Z,20.53
2018-06-10T13:20:59.056Z,20.00
2018-06-10T13:23:29.651Z,23.43
2018-06-10T13:26:00.206Z,23.03
2018-06-10T13:28:30.736Z,23.17
2018-06-10T13:31:01.295Z,22.07
2018-06-10T13:33:31.869Z,22.07
2018-06-10T13:36:02.461Z,20.17
2018-06-10T13:38:33.036Z,20.40
2018-06-10T13:41:03.618Z,20.03
2018-06-10T13:43:34.203Z,19.97
2018-06-10T13:46:04.885Z,19.67
2018-06-10T13:48:35.397Z,19.63
2018-06-10T13:51:05.976Z,17.80
2018-06-10T13:53:36.534Z,16.20
2018-06-10T13:56:07.229Z,16.90
2018-06-10T13:58:37.746Z,16.47
2018-06-10T14:01:08.308Z,16.10
2018-06-10T14:03:38.854Z,16.37
2018-06-10T14:06:09.455Z,15.70
2018-06-10T14:08:39.948Z,16.90
2018-06-10T14:11:10.550Z,15.13
2018-06-10T14:13:41.084Z,13.37
2018-06-10T14:16:11.658Z,13.03
2018-06-10T14:18:42.190Z,16.00
2018-06-10T14:21:12.786Z,12.83
2018-06-10T14:23:43.324Z,14.57
2018-06-10T14:26:13.897Z,12.33
2018-06-10T14:28:44.442Z,13.73
2018-06-10T14:31:14.977Z,12.50
2018-06-10T14:33:45.598Z,12.37
2018-06-10T14:36:16.204Z,12.93
2018-06-10T14:38:46.760Z,12.17
2018-06-10T14:41:17.295Z,11.00
2018-06-10T14:43:47.880Z,11.93
2018-06-10T14:46:18.457Z,10.90
2018-06-10T14:48:48.978Z,10.60
2018-06-10T14:51:19.553Z,12.00
2018-06-10T14:53:50.108Z,13.50
2018-06-10T14:56:20.673Z,11.83
2018-06-10T14:58:51.282Z,13.00
2018-06-10T15:01:21.596Z,12.87
2018-06-10T15:03:52.118Z,12.13
2018-06-10T15:06:22.665Z,10.97
2018-06-10T15:08:53.237Z,11.53
2018-06-10T15:11:24.239Z,9.13
2018-06-10T15:13:55.050Z,9.83
2018-06-10T15:16:26.011Z,10.17
2018-06-10T15:18:56.680Z,10.20
2018-06-10T15:21:27.695Z,9.70
2018-06-10T15:23:58.497Z,11.37
2018-06-10T15:26:29.282Z,10.07
2018-06-10T15:28:59.960Z,10.30
2018-06-10T15:31:30.813Z,10.67
2018-06-10T15:34:01.381Z,9.87
2018-06-10T15:36:32.281Z,10.40
2018-06-10T15:39:03.323Z,9.90
2018-06-10T15:41:33.850Z,10.00
2018-06-10T15:44:04.417Z,10.50
2018-06-10T15:46:35.002Z,12.17
2018-06-10T15:49:05.565Z,10.27
2018-06-10T15:51:36.121Z,12.87
2018-06-10T15:54:06.790Z,13.53
2018-06-10T15:56:37.280Z,11.37
2018-06-10T15:59:07.817Z,11.33
2018-06-10T16:01:38.350Z,11.30
2018-06-10T16:04:08.912Z,11.80
2018-06-10T16:07:13.332Z,12.07
2018-06-10T16:09:43.877Z,12.60
2018-06-10T16:12:14.418Z,10.63
2018-06-10T16:17:21.808Z,9.30
2018-06-10T16:19:52.365Z,10.30
2018-06-10T16:22:22.880Z,10.93
2018-06-10T16:24:53.443Z,10.47
2018-06-10T16:27:23.941Z,11.03
2018-06-10T16:29:54.512Z,10.80
2018-06-10T16:32:25.052Z,10.07
2018-06-10T16:34:55.578Z,10.57
2018-06-10T16:37:26.128Z,11.87
2018-06-10T16:39:56.657Z,10.97
2018-06-10T16:42:27.213Z,11.10
2018-06-10T16:44:57.764Z,10.47
2018-06-10T16:47:28.286Z,9.87
2018-06-10T16:49:58.853Z,10.43
2018-06-10T16:52:29.436Z,9.83
2018-06-10T16:54:59.960Z,11.47
2018-06-10T16:57:30.465Z,10.63
2018-06-10T17:00:01.044Z,10.60
2018-06-10T17:02:31.597Z,10.53
2018-06-10T17:05:02.184Z,9.90
2018-06-10T17:07:32.725Z,9.57
2018-06-10T17:10:03.319Z,10.00
2018-06-10T17:12:33.890Z,9.87
2018-06-10T17:15:04.530Z,10.87
2018-06-10T17:17:35.077Z,10.13
2018-06-10T17:20:05.746Z,9.23
2018-06-10T17:22:36.304Z,10.80
2018-06-10T17:25:06.863Z,8.97
2018-06-10T17:27:37.509Z,9.63
2018-06-10T17:30:08.108Z,9.20
2018-06-10T17:32:38.703Z,10.70
2018-06-10T17:35:09.259Z,8.27
2018-06-10T17:37:39.814Z,8.83
2018-06-10T17:40:10.424Z,8.67
2018-06-10T17:42:40.984Z,9.83
2018-06-10T17:45:11.558Z,10.17
2018-06-10T17:47:42.169Z,8.83
2018-06-10T17:50:12.718Z,8.63
2018-06-10T17:52:43.263Z,11.93
2018-06-10T17:55:14.037Z,10.67
2018-06-10T17:57:44.680Z,10.50
2018-06-10T18:00:15.421Z,8.63
2018-06-10T18:02:45.960Z,9.60
2018-06-10T18:05:16.529Z,10.27
2018-06-10T18:07:47.089Z,10.53
2018-06-10T18:10:17.649Z,9.97
2018-06-10T18:12:48.232Z,9.10
2018-06-10T18:15:18.862Z,9.77
2018-06-10T18:17:49.398Z,10.07
2018-06-10T18:20:19.989Z,10.77
2018-06-10T18:25:35.340Z,9.80
2018-06-10T18:28:06.001Z,8.87
2018-06-10T18:30:36.607Z,9.80
2018-06-10T18:33:07.222Z,11.10
2018-06-10T18:35:37.822Z,9.40
2018-06-10T18:38:08.409Z,9.27
2018-06-10T18:40:39.058Z,9.70
2018-06-10T18:43:09.700Z,9.30
2018-06-10T18:45:40.316Z,10.67
2018-06-10T18:48:10.946Z,11.00
2018-06-10T18:50:41.606Z,9.07
2018-06-10T18:53:12.295Z,11.43
2018-06-10T18:55:42.848Z,10.87
2018-06-10T18:58:13.526Z,8.13
2018-06-10T19:00:44.186Z,11.27
2018-06-10T19:03:14.791Z,7.97
2018-06-10T19:05:45.461Z,10.60
2018-06-10T19:08:16.041Z,9.73
2018-06-10T19:10:46.763Z,9.23
2018-06-10T19:13:17.343Z,8.83
2018-06-10T19:15:48.028Z,9.70
2018-06-10T19:18:18.608Z,8.03
2018-06-10T19:20:49.245Z,9.27
2018-06-10T19:23:19.834Z,8.70
2018-06-10T19:25:50.429Z,10.17
2018-06-10T19:28:21.037Z,10.73
2018-06-10T19:30:51.651Z,9.03
2018-06-10T19:33:22.268Z,8.83
2018-06-10T19:35:52.832Z,9.10
2018-06-10T19:38:23.426Z,10.60
2018-06-10T19:40:54.041Z,8.23
2018-06-10T19:43:24.325Z,10.27
2018-06-10T19:45:54.774Z,9.30
2018-06-10T19:48:25.363Z,8.90
2018-06-10T19:50:55.604Z,8.70
2018-06-10T19:53:26.092Z,9.27
2018-06-10T19:55:56.702Z,9.00
2018-06-10T19:58:27.554Z,9.03
2018-06-10T20:00:58.388Z,10.07
2018-06-10T20:03:29.023Z,9.30
2018-06-10T20:05:59.539Z,12.67
2018-06-10T20:08:30.152Z,10.00
2018-06-10T20:11:00.726Z,9.47
2018-06-10T20:13:31.328Z,10.83
2018-06-10T20:16:01.901Z,11.50
2018-06-10T20:18:32.533Z,12.43
2018-06-10T20:21:03.082Z,11.37
2018-06-10T20:23:33.715Z,10.50
2018-06-10T20:26:04.392Z,11.70
2018-06-10T20:28:34.961Z,13.00
2018-06-10T20:31:05.585Z,11.10
2018-06-10T20:33:36.279Z,12.10
2018-06-10T20:36:06.880Z,13.27
2018-06-10T20:38:37.472Z,12.23
2018-06-10T20:41:08.146Z,18.27
2018-06-10T20:43:38.715Z,12.43
2018-06-10T20:46:09.281Z,12.77
2018-06-10T20:48:39.965Z,11.87
2018-06-10T20:51:10.541Z,11.50
2018-06-10T20:53:42.128Z,15.53
2018-06-10T20:56:12.708Z,11.70
2018-06-10T20:58:43.372Z,13.13
2018-06-10T21:01:13.928Z,12.90
2018-06-10T21:03:44.777Z,12.20
2018-06-10T21:06:15.337Z,14.37
2018-06-10T21:08:45.972Z,15.80
2018-06-10T21:11:16.486Z,13.80
2018-06-10T21:13:47.108Z,14.33
2018-06-10T21:16:17.630Z,14.10
2018-06-10T21:18:48.269Z,14.00
2018-06-10T21:21:18.855Z,13.97
2018-06-10T21:23:49.525Z,14.43
2018-06-10T21:26:20.074Z,15.73
2018-06-10T21:28:50.649Z,15.87
2018-06-10T21:31:21.250Z,14.93
2018-06-10T21:33:51.840Z,14.77
2018-06-10T21:36:22.424Z,15.87
2018-06-10T21:38:52.959Z,15.23
2018-06-10T21:41:23.519Z,15.17
2018-06-10T21:43:54.069Z,16.93
2018-06-10T21:46:24.620Z,15.13
2018-06-10T21:48:55.165Z,16.87
2018-06-10T21:51:25.752Z,16.07
2018-06-10T21:53:56.354Z,14.70
2018-06-10T21:56:26.942Z,17.37
2018-06-10T21:58:57.496Z,15.87
2018-06-10T22:01:28.082Z,17.30
2018-06-10T22:03:58.640Z,15.80
2018-06-10T22:06:29.301Z,17.10
2018-06-10T22:08:59.852Z,15.93
2018-06-10T22:11:30.513Z,17.23
2018-06-10T22:14:01.032Z,15.53
2018-06-10T22:16:31.720Z,15.47
2018-06-10T22:19:02.281Z,16.60
2018-06-10T22:21:32.824Z,16.00
2018-06-10T22:24:03.399Z,17.77
2018-06-10T22:26:34.031Z,17.53
2018-06-10T22:29:05.199Z,16.17
2018-06-10T22:31:35.743Z,16.80
2018-06-10T22:34:06.317Z,17.23
2018-06-10T22:36:36.907Z,18.57
2018-06-10T22:39:09.051Z,16.40
2018-06-10T22:41:39.727Z,17.07
2018-06-10T22:44:10.275Z,16.50
2018-06-10T22:46:40.890Z,16.60
2018-06-10T22:49:11.453Z,16.37
2018-06-10T22:51:42.022Z,16.20
2018-06-10T22:54:29.575Z,18.53
2018-06-10T22:57:00.188Z,16.07
2018-06-10T22:59:30.709Z,16.63
2018-06-10T23:02:01.258Z,18.33
2018-06-10T23:04:31.801Z,17.07
2018-06-10T23:07:02.396Z,18.93
2018-06-10T23:09:32.974Z,18.27
2018-06-10T23:12:03.514Z,19.80
2018-06-10T23:14:34.095Z,19.10
2018-06-10T23:17:04.728Z,20.23
2018-06-10T23:19:35.312Z,22.73
2018-06-10T23:22:05.862Z,20.83
2018-06-10T23:24:36.438Z,18.30
2018-06-10T23:27:06.946Z,17.87
2018-06-10T23:29:37.551Z,18.90
2018-06-10T23:32:08.112Z,17.67
2018-06-10T23:34:38.676Z,16.53
2018-06-10T23:37:09.250Z,21.10
2018-06-10T23:39:39.789Z,18.03
2018-06-10T23:42:10.351Z,16.97
2018-06-10T23:44:40.907Z,18.20
2018-06-10T23:47:11.425Z,19.27
2018-06-10T23:49:41.999Z,17.70
2018-06-10T23:52:12.544Z,18.73
2018-06-10T23:54:43.087Z,22.13
2018-06-10T23:57:13.618Z,18.33
2018-06-10T23:59:44.204Z,19.50
